Decoded Metar for KRPD (RICE LAKE in WI, USA) (IATA:RPD) | Meteo·Mobile Aviation Weather
aviador You're here:

KRPD Decoded Metar

RICE LAKE in WI, USA
Report Time2018-09-22 14:55:00
UTC Time2018-09-22 15:07:24
Flight Rules vfr VFR
Wind210° at 07 kt
W.Decomp.*RWY 19: 6.6 kt HW 2.3 kt RCW
RWY 13: 1.3 kt HW 6.9 kt RCW
W.Rank210° ranks 26
Current wind is above 210° avg. (6.6)
Visibility9999 m
Phenomena:N/A
Clouds:N/A
Expected CloudBase > 2,000 ft AGL from Temp-Dew spread
CeilingNone
Temp11°C (ISA -2)
Dew Point06°C (72% RH)
AAT7.6°C
QNH1027 hPa
Density Alt554 ft
Elevation1,109 ft
Report Wrong Elevation
Raw Report
KRPD 221455Z AUTO 21007KT 10SM CLR 11/06 A3032 RMK AO2
T01120056=

Extra information for KRPD:More info

Metar Taf Metar & Taf Last 4 Metars F.Rules Stats Wind Profile Meteogram Temp Stats Airport Information Weather charts Add Link Nearby VenuesMetar ALERT Operation Metar Decoded Social comments

AIRNAV info for KRPD